createdAt,value
2023-03-07T00:00:46.404Z,9.35
2023-03-07T00:03:20.951Z,8.63
2023-03-07T00:05:50.990Z,8.57
2023-03-07T00:08:20.750Z,9.25
2023-03-07T00:10:50.546Z,8.77
2023-03-07T00:13:20.369Z,8.95
2023-03-07T00:15:50.198Z,9.43
2023-03-07T00:18:22.552Z,8.65
2023-03-07T00:21:00.667Z,8.73
2023-03-07T00:23:30.590Z,8.77
2023-03-07T00:26:02.402Z,9.77
2023-03-07T00:28:32.647Z,8.45
2023-03-07T00:31:03.559Z,8.68
2023-03-07T00:33:36.107Z,9.68
2023-03-07T00:36:07.991Z,8.23
2023-03-07T00:38:38.151Z,8.73
2023-03-07T00:41:09.803Z,8.73
2023-03-07T00:43:40.504Z,9.07
2023-03-07T00:46:10.941Z,9.05
2023-03-07T00:48:43.643Z,9.35
2023-03-07T00:51:15.963Z,9.10
2023-03-07T00:53:46.259Z,9.32
2023-03-07T00:56:17.339Z,8.60
2023-03-07T00:58:47.738Z,8.95
2023-03-07T01:01:19.296Z,8.80
2023-03-07T01:03:53.748Z,9.40
2023-03-07T01:08:55.233Z,9.05
2023-03-07T01:11:25.179Z,8.50
2023-03-07T01:13:57.816Z,8.73
2023-03-07T01:16:29.898Z,9.85
2023-03-07T01:19:04.373Z,8.18
2023-03-07T01:21:36.441Z,8.43
2023-03-07T01:24:06.741Z,7.97
2023-03-07T01:26:37.438Z,7.93
2023-03-07T01:29:08.967Z,8.02
2023-03-07T01:31:39.139Z,8.02
2023-03-07T01:34:11.520Z,8.27
2023-03-07T01:36:41.346Z,8.00
2023-03-07T01:39:15.167Z,9.27
2023-03-07T01:41:45.085Z,8.00
2023-03-07T01:44:19.072Z,8.52
2023-03-07T01:46:54.556Z,8.75
2023-03-07T01:49:31.223Z,8.18
2023-03-07T01:52:06.455Z,7.65
2023-03-07T01:54:40.391Z,8.27
2023-03-07T01:57:10.928Z,7.88
2023-03-07T01:59:47.083Z,8.55
2023-03-07T02:02:19.762Z,8.60
2023-03-07T02:04:57.261Z,8.57
2023-03-07T02:07:31.980Z,8.02
2023-03-07T02:10:04.080Z,8.10
2023-03-07T02:12:34.275Z,8.30
2023-03-07T02:15:05.278Z,8.30
2023-03-07T02:17:35.211Z,8.30
2023-03-07T02:20:30.774Z,8.07
2023-03-07T02:23:00.637Z,8.85
2023-03-07T02:25:34.478Z,8.35
2023-03-07T02:28:07.695Z,7.88
2023-03-07T02:30:39.658Z,8.18
2023-03-07T02:33:09.500Z,8.75
2023-03-07T02:35:39.347Z,8.05
2023-03-07T02:38:09.132Z,8.35
2023-03-07T02:40:40.132Z,8.10
2023-03-07T02:43:13.143Z,7.68
2023-03-07T02:45:43.064Z,8.18
2023-03-07T02:48:12.909Z,8.13
2023-03-07T02:50:42.692Z,7.90
2023-03-07T02:53:12.483Z,7.63
2023-03-07T02:55:42.223Z,7.53
2023-03-07T02:58:14.610Z,8.18
2023-03-07T03:00:44.602Z,7.82
2023-03-07T03:03:14.515Z,7.93
2023-03-07T03:05:44.365Z,8.48
2023-03-07T03:08:14.784Z,8.23
2023-03-07T03:10:44.675Z,8.50
2023-03-07T03:13:16.971Z,8.35
2023-03-07T03:15:46.801Z,7.88
2023-03-07T03:18:17.763Z,8.20
2023-03-07T03:20:47.568Z,8.27
2023-03-07T03:23:17.755Z,7.00
2023-03-07T03:25:48.253Z,8.20
2023-03-07T03:28:20.911Z,7.90
2023-03-07T03:31:00.215Z,8.35
2023-03-07T03:33:31.235Z,7.82
2023-03-07T03:36:02.183Z,8.88
2023-03-07T03:38:33.443Z,8.25
2023-03-07T03:41:07.616Z,7.70
2023-03-07T03:43:40.102Z,7.90
2023-03-07T03:46:09.903Z,7.75
2023-03-07T03:48:40.635Z,8.55
2023-03-07T03:51:14.464Z,7.97
2023-03-07T03:53:44.733Z,8.27
2023-03-07T03:56:15.881Z,8.75
2023-03-07T03:58:49.946Z,8.02
2023-03-07T04:01:20.384Z,8.15
2023-03-07T04:03:51.719Z,8.18
2023-03-07T04:06:23.398Z,8.90
2023-03-07T04:08:54.309Z,9.07
2023-03-07T04:11:25.060Z,8.55
2023-03-07T04:13:57.414Z,8.85
2023-03-07T04:16:27.313Z,8.30
2023-03-07T04:18:57.576Z,8.45
2023-03-07T04:21:27.361Z,8.63
2023-03-07T04:23:58.412Z,8.05
2023-03-07T04:26:28.258Z,8.98
2023-03-07T04:29:00.691Z,7.90
2023-03-07T04:31:31.490Z,9.27
2023-03-07T04:34:01.355Z,8.52
2023-03-07T04:36:31.130Z,8.90
2023-03-07T04:39:00.859Z,8.57
2023-03-07T04:41:30.763Z,8.68
2023-03-07T04:44:03.075Z,8.60
2023-03-07T04:46:32.894Z,8.02
2023-03-07T04:49:02.820Z,8.27
2023-03-07T04:51:32.598Z,8.02
2023-03-07T04:54:02.321Z,7.72
2023-03-07T04:56:32.174Z,9.15
2023-03-07T04:59:04.504Z,8.27
2023-03-07T05:01:34.363Z,8.05
2023-03-07T05:04:04.197Z,7.80
2023-03-07T05:06:34.121Z,7.55
2023-03-07T05:09:03.909Z,7.18
2023-03-07T05:11:33.731Z,7.88
2023-03-07T05:14:06.095Z,6.82
2023-03-07T05:16:35.971Z,7.20
2023-03-07T05:19:06.282Z,7.72
2023-03-07T05:21:38.787Z,7.38
2023-03-07T05:24:09.111Z,7.40
2023-03-07T05:26:39.365Z,7.45
2023-03-07T05:29:11.823Z,7.65
2023-03-07T05:31:41.663Z,6.65
2023-03-07T05:34:11.978Z,7.53
2023-03-07T05:36:41.814Z,7.38
2023-03-07T05:39:11.712Z,7.63
2023-03-07T05:41:41.785Z,8.23
2023-03-07T05:44:14.137Z,7.45
2023-03-07T05:46:43.932Z,7.15
2023-03-07T05:49:13.731Z,7.32
2023-03-07T05:51:43.515Z,7.30
2023-03-07T05:54:13.366Z,7.43
2023-03-07T05:56:43.099Z,8.40
2023-03-07T05:59:15.702Z,8.68
2023-03-07T06:01:45.601Z,8.98
2023-03-07T06:04:15.336Z,8.32
2023-03-07T06:06:45.118Z,8.93
2023-03-07T06:09:14.936Z,8.38
2023-03-07T06:11:44.670Z,8.02
2023-03-07T06:14:17.078Z,8.73
2023-03-07T06:16:47.034Z,8.77
2023-03-07T06:19:16.762Z,8.27
2023-03-07T06:21:46.652Z,8.32
2023-03-07T06:24:16.388Z,8.80
2023-03-07T06:26:46.109Z,8.90
2023-03-07T06:29:18.457Z,8.38
2023-03-07T06:31:48.218Z,8.30
2023-03-07T06:34:17.981Z,8.52
2023-03-07T06:36:48.580Z,8.55
2023-03-07T06:39:21.243Z,9.13
2023-03-07T06:41:51.340Z,8.98
2023-03-07T06:44:24.421Z,8.45
2023-03-07T06:46:54.134Z,8.48
2023-03-07T06:49:24.128Z,9.43
2023-03-07T06:51:54.036Z,8.82
2023-03-07T06:54:23.808Z,7.68
2023-03-07T06:56:55.122Z,8.80
2023-03-07T06:59:27.513Z,8.38
2023-03-07T07:01:57.412Z,9.10
2023-03-07T07:04:27.195Z,8.68
2023-03-07T07:06:56.928Z,9.05
2023-03-07T07:09:26.714Z,9.50
2023-03-07T07:11:56.533Z,8.32
2023-03-07T07:14:28.904Z,8.10
2023-03-07T07:16:58.694Z,8.20
2023-03-07T07:19:28.591Z,8.27
2023-03-07T07:21:58.363Z,8.38
2023-03-07T07:24:28.195Z,8.55
2023-03-07T07:26:58.399Z,8.13
2023-03-07T07:29:30.809Z,7.90
2023-03-07T07:32:00.699Z,8.05
2023-03-07T07:34:30.526Z,8.00
2023-03-07T07:37:00.310Z,8.38
2023-03-07T07:39:30.155Z,8.77
2023-03-07T07:42:00.235Z,7.78
2023-03-07T07:44:34.554Z,8.70
2023-03-07T07:47:04.701Z,7.30
2023-03-07T07:49:34.453Z,8.60
2023-03-07T07:52:04.275Z,7.40
2023-03-07T07:54:34.418Z,8.75
2023-03-07T07:57:04.361Z,7.43
2023-03-07T07:59:36.738Z,8.80
2023-03-07T08:02:06.615Z,7.55
2023-03-07T08:04:36.482Z,7.82
2023-03-07T08:07:06.554Z,7.57
2023-03-07T08:09:37.102Z,7.85
2023-03-07T08:12:07.675Z,8.05
2023-03-07T08:14:43.007Z,8.25
2023-03-07T08:17:12.953Z,6.75
2023-03-07T08:19:42.846Z,7.97
2023-03-07T08:22:12.637Z,7.20
2023-03-07T08:24:43.228Z,8.00
2023-03-07T08:27:13.016Z,6.75
2023-03-07T08:29:45.403Z,6.93
2023-03-07T08:32:17.447Z,7.70
2023-03-07T08:34:47.340Z,7.35
2023-03-07T08:37:17.079Z,7.00
2023-03-07T08:39:46.857Z,7.13
2023-03-07T08:42:16.834Z,7.07
2023-03-07T08:44:49.199Z,6.80
2023-03-07T08:47:19.035Z,7.68
2023-03-07T08:49:48.817Z,6.90
2023-03-07T08:52:18.585Z,7.35
2023-03-07T08:54:48.398Z,7.70
2023-03-07T08:57:18.171Z,7.10
2023-03-07T08:59:50.505Z,8.10
2023-03-07T09:02:20.549Z,7.80
2023-03-07T09:04:50.509Z,7.50
2023-03-07T09:07:20.578Z,6.97
2023-03-07T09:09:50.362Z,7.35
2023-03-07T09:12:20.523Z,6.88
2023-03-07T09:14:52.863Z,6.30
2023-03-07T09:17:22.656Z,6.20
2023-03-07T09:19:52.428Z,6.45
2023-03-07T09:22:22.281Z,6.60
2023-03-07T09:24:52.065Z,6.18
2023-03-07T09:27:22.095Z,5.57
2023-03-07T09:29:54.932Z,5.50
2023-03-07T09:32:24.979Z,5.65
2023-03-07T09:34:55.079Z,5.32
2023-03-07T09:37:24.853Z,5.22
2023-03-07T09:39:54.599Z,5.10
2023-03-07T09:42:30.367Z,5.43
2023-03-07T09:45:17.824Z,5.05
2023-03-07T09:48:11.457Z,5.57
2023-03-07T09:50:47.872Z,5.25
2023-03-07T09:53:24.515Z,5.25
2023-03-07T09:55:57.521Z,5.18
2023-03-07T09:58:29.822Z,4.95
2023-03-07T10:01:04.002Z,4.90
2023-03-07T10:03:40.377Z,5.30
2023-03-07T10:06:17.162Z,4.88
2023-03-07T10:08:47.140Z,4.63
2023-03-07T10:11:27.180Z,5.10
2023-03-07T10:14:22.763Z,4.50
2023-03-07T10:17:03.429Z,4.35
2023-03-07T10:19:39.997Z,4.40
2023-03-07T10:22:19.963Z,4.80
2023-03-07T10:25:03.295Z,5.07
2023-03-07T10:27:35.190Z,4.45
2023-03-07T10:30:17.890Z,4.53
2023-03-07T10:32:54.572Z,7.63
2023-03-07T10:35:25.997Z,3.95
2023-03-07T10:37:59.535Z,4.60
2023-03-07T10:40:33.145Z,4.10
2023-03-07T10:43:04.896Z,3.97
2023-03-07T10:45:37.968Z,4.00
2023-03-07T10:48:18.131Z,4.28
2023-03-07T10:50:56.239Z,4.03
2023-03-07T10:53:29.277Z,4.50
2023-03-07T10:56:13.349Z,4.68
2023-03-07T10:59:01.374Z,4.87
2023-03-07T11:01:31.550Z,5.50
2023-03-07T11:04:06.299Z,4.63
2023-03-07T11:06:39.367Z,4.53
2023-03-07T11:09:21.061Z,4.63
2023-03-07T11:11:54.739Z,5.00
2023-03-07T11:14:25.319Z,7.03
2023-03-07T11:16:57.163Z,8.55
2023-03-07T11:19:48.687Z,5.20
2023-03-07T11:22:24.812Z,4.75
2023-03-07T11:25:01.465Z,5.25
2023-03-07T11:27:40.720Z,5.55
2023-03-07T11:30:27.830Z,5.00
2023-03-07T11:33:13.239Z,5.28
2023-03-07T11:36:05.165Z,4.72
2023-03-07T11:38:43.722Z,4.82
2023-03-07T11:41:19.628Z,4.85
2023-03-07T11:44:07.715Z,4.80
2023-03-07T11:46:47.908Z,5.50
2023-03-07T11:49:32.547Z,4.50
2023-03-07T11:52:18.114Z,5.00
2023-03-07T11:54:56.055Z,5.03
2023-03-07T11:57:35.599Z,4.45
2023-03-07T12:00:26.214Z,4.38
2023-03-07T12:03:26.409Z,4.80
2023-03-07T12:06:15.901Z,4.72
2023-03-07T12:08:58.621Z,4.75
2023-03-07T12:11:47.420Z,4.65
2023-03-07T12:14:25.746Z,4.57
2023-03-07T12:17:08.715Z,4.95
2023-03-07T12:20:05.412Z,4.30
2023-03-07T12:22:46.530Z,4.22
2023-03-07T12:25:33.578Z,4.45
2023-03-07T12:28:12.496Z,4.30
2023-03-07T12:30:58.741Z,5.35
2023-03-07T12:33:35.073Z,4.68
2023-03-07T12:36:10.412Z,4.72
2023-03-07T12:38:45.119Z,4.63
2023-03-07T12:41:28.627Z,5.05
2023-03-07T12:44:05.359Z,4.07
2023-03-07T12:46:41.670Z,4.82
2023-03-07T12:49:19.289Z,3.97
2023-03-07T12:51:52.208Z,4.47
2023-03-07T12:54:26.019Z,4.10
2023-03-07T12:57:04.914Z,4.35
2023-03-07T12:59:37.279Z,4.90
2023-03-07T13:02:13.658Z,4.93
2023-03-07T13:04:45.280Z,5.05
2023-03-07T13:07:18.206Z,4.60
2023-03-07T13:09:51.143Z,4.65
2023-03-07T13:12:44.611Z,4.78
2023-03-07T13:15:49.974Z,4.45
2023-03-07T13:18:30.467Z,3.92
2023-03-07T13:21:15.019Z,4.38
2023-03-07T13:23:44.839Z,4.10
2023-03-07T13:26:16.607Z,4.03
2023-03-07T13:28:53.694Z,4.82
2023-03-07T13:31:47.259Z,4.30
2023-03-07T13:34:51.800Z,3.92
2023-03-07T13:37:51.932Z,3.60
2023-03-07T13:40:50.015Z,3.70
2023-03-07T13:44:00.593Z,3.35
2023-03-07T13:47:01.266Z,3.47
2023-03-07T13:49:47.840Z,3.60
2023-03-07T13:52:47.788Z,3.33
2023-03-07T13:55:25.464Z,3.30
2023-03-07T13:57:58.832Z,3.20
2023-03-07T14:00:39.983Z,3.30
2023-03-07T14:03:33.803Z,3.38
2023-03-07T14:06:06.785Z,3.55
2023-03-07T14:08:37.619Z,3.47
2023-03-07T14:11:09.507Z,3.47
2023-03-07T14:13:53.485Z,3.28
2023-03-07T14:16:47.987Z,3.10
2023-03-07T14:19:41.650Z,3.58
2023-03-07T14:22:21.662Z,3.33
2023-03-07T14:25:07.613Z,3.33
2023-03-07T14:27:52.826Z,3.47
2023-03-07T14:30:24.031Z,3.65
2023-03-07T14:32:54.478Z,3.10
2023-03-07T14:35:42.439Z,3.15
2023-03-07T14:38:22.448Z,3.40
2023-03-07T14:41:07.055Z,3.00
2023-03-07T14:43:50.894Z,3.70
2023-03-07T14:46:31.316Z,3.53
2023-03-07T14:49:15.629Z,3.55
2023-03-07T14:51:48.234Z,3.40
2023-03-07T14:54:20.811Z,3.15
2023-03-07T14:56:53.222Z,3.72
2023-03-07T14:59:28.899Z,3.63
2023-03-07T15:02:00.146Z,3.78
2023-03-07T15:04:32.607Z,3.90
2023-03-07T15:07:11.434Z,3.40
2023-03-07T15:09:42.213Z,3.53
2023-03-07T15:12:16.706Z,3.70
2023-03-07T15:14:51.062Z,3.47
2023-03-07T15:17:24.380Z,3.08
2023-03-07T15:19:58.354Z,3.42
2023-03-07T15:22:39.231Z,3.65
2023-03-07T15:25:10.874Z,3.67
2023-03-07T15:27:41.447Z,3.40
2023-03-07T15:30:29.614Z,3.83
2023-03-07T15:33:16.223Z,3.88
2023-03-07T15:35:47.202Z,3.92
2023-03-07T15:38:26.083Z,4.50
2023-03-07T15:40:55.853Z,4.10
2023-03-07T15:43:30.868Z,4.18
2023-03-07T15:46:05.888Z,4.40
2023-03-07T15:48:46.004Z,3.95
2023-03-07T15:51:19.103Z,3.38
2023-03-07T15:53:57.749Z,6.78
2023-03-07T15:56:34.000Z,3.45
2023-03-07T15:59:06.771Z,3.55
2023-03-07T16:01:36.630Z,3.28
2023-03-07T16:04:06.798Z,3.92
2023-03-07T16:06:46.945Z,4.35
2023-03-07T16:09:21.215Z,3.45
2023-03-07T16:11:50.973Z,3.80
2023-03-07T16:14:26.277Z,3.33
2023-03-07T16:16:57.302Z,3.88
2023-03-07T16:19:27.224Z,3.50
2023-03-07T16:21:56.998Z,4.32
2023-03-07T16:24:29.363Z,4.60
2023-03-07T16:26:59.220Z,4.05
2023-03-07T16:29:29.684Z,4.28
2023-03-07T16:32:01.301Z,4.10
2023-03-07T16:34:31.177Z,4.53
2023-03-07T16:37:00.955Z,4.70
2023-03-07T16:39:33.346Z,5.05
2023-03-07T16:42:03.391Z,5.40
2023-03-07T16:44:33.318Z,5.70
2023-03-07T16:47:08.560Z,4.88
2023-03-07T16:49:38.554Z,4.63
2023-03-07T16:52:09.676Z,4.97
2023-03-07T16:54:42.546Z,4.82
2023-03-07T16:57:16.471Z,5.00
2023-03-07T16:59:49.100Z,4.70
2023-03-07T17:02:21.107Z,4.40
2023-03-07T17:04:51.129Z,4.15
2023-03-07T17:07:23.468Z,4.70
2023-03-07T17:09:58.377Z,4.28
2023-03-07T17:12:28.134Z,4.82
2023-03-07T17:14:59.299Z,4.93
2023-03-07T17:17:33.373Z,4.72
2023-03-07T17:20:05.594Z,5.10
2023-03-07T17:22:35.574Z,4.45
2023-03-07T17:25:08.852Z,4.88
2023-03-07T17:27:43.924Z,4.75
2023-03-07T17:30:20.538Z,4.68
2023-03-07T17:32:50.693Z,4.88
2023-03-07T17:35:21.158Z,5.05
2023-03-07T17:37:53.457Z,4.85
2023-03-07T17:40:25.987Z,5.07
2023-03-07T17:42:57.746Z,4.38
2023-03-07T17:45:27.717Z,4.68
2023-03-07T17:47:57.793Z,4.68
2023-03-07T17:50:27.749Z,4.95
2023-03-07T17:52:58.340Z,5.07
2023-03-07T17:55:31.229Z,4.72
2023-03-07T17:58:01.195Z,4.78
2023-03-07T18:00:31.042Z,5.28
2023-03-07T18:03:00.876Z,4.72
2023-03-07T18:05:30.675Z,4.35
2023-03-07T18:08:00.553Z,4.35
2023-03-07T18:10:35.655Z,4.65
2023-03-07T18:13:05.477Z,4.65
2023-03-07T18:15:35.237Z,4.88
2023-03-07T18:18:06.900Z,4.85
2023-03-07T18:20:36.766Z,4.85
2023-03-07T18:23:06.605Z,4.63
2023-03-07T18:25:38.988Z,6.38
2023-03-07T18:28:08.784Z,5.20
2023-03-07T18:30:38.642Z,5.03
2023-03-07T18:33:08.430Z,5.35
2023-03-07T18:35:39.762Z,4.57
2023-03-07T18:38:09.783Z,5.28
2023-03-07T18:40:42.156Z,5.57
2023-03-07T18:43:12.103Z,4.78
2023-03-07T18:45:45.962Z,4.63
2023-03-07T18:48:16.179Z,5.00
2023-03-07T18:50:45.927Z,6.18
2023-03-07T18:53:15.818Z,5.50
2023-03-07T18:55:48.248Z,5.80
2023-03-07T18:58:18.267Z,5.93
2023-03-07T19:00:48.453Z,8.45
2023-03-07T19:03:19.127Z,5.78
2023-03-07T19:05:50.680Z,6.07
2023-03-07T19:08:20.514Z,5.82
2023-03-07T19:10:52.828Z,6.18
2023-03-07T19:13:22.667Z,5.40
2023-03-07T19:15:52.448Z,5.43
2023-03-07T19:18:22.219Z,5.40
2023-03-07T19:20:51.945Z,5.32
2023-03-07T19:23:21.716Z,5.70
2023-03-07T19:25:54.074Z,5.85
2023-03-07T19:28:23.894Z,5.75
2023-03-07T19:30:54.284Z,5.50
2023-03-07T19:33:24.144Z,5.28
2023-03-07T19:36:04.085Z,5.68
2023-03-07T19:38:34.048Z,5.20
2023-03-07T19:41:07.080Z,5.47
2023-03-07T19:43:36.925Z,5.90
2023-03-07T19:46:10.771Z,5.70
2023-03-07T19:48:41.018Z,5.63
2023-03-07T19:51:15.912Z,6.07
2023-03-07T19:53:46.125Z,6.25
2023-03-07T19:56:21.016Z,5.93
2023-03-07T19:58:51.276Z,5.40
2023-03-07T20:01:22.605Z,5.28
2023-03-07T20:03:53.226Z,4.95
2023-03-07T20:06:25.310Z,5.30
2023-03-07T20:08:56.964Z,5.20
2023-03-07T20:11:31.524Z,5.60
2023-03-07T20:16:31.976Z,5.68
2023-03-07T20:19:04.114Z,4.63
2023-03-07T20:21:35.806Z,4.75
2023-03-07T20:24:05.954Z,4.63
2023-03-07T20:26:40.763Z,3.72
2023-03-07T20:29:12.056Z,3.42
2023-03-07T20:31:42.419Z,2.70
2023-03-07T20:34:13.262Z,3.00
2023-03-07T20:36:43.202Z,2.83
2023-03-07T20:39:15.581Z,2.80
2023-03-07T20:41:48.008Z,3.03
2023-03-07T20:44:18.654Z,3.60
2023-03-07T20:46:48.390Z,2.95
2023-03-07T20:49:18.560Z,3.42
2023-03-07T20:51:48.808Z,3.35
2023-03-07T20:54:20.500Z,3.88
2023-03-07T20:56:52.912Z,3.53
2023-03-07T20:59:23.626Z,3.17
2023-03-07T21:01:53.612Z,5.15
2023-03-07T21:04:23.503Z,3.20
2023-03-07T21:06:53.539Z,2.88
2023-03-07T21:09:24.577Z,2.90
2023-03-07T21:11:57.227Z,3.47
2023-03-07T21:14:27.020Z,3.38
2023-03-07T21:16:56.941Z,2.92
2023-03-07T21:19:26.820Z,3.70
2023-03-07T21:21:58.939Z,3.60
2023-03-07T21:24:28.881Z,3.13
2023-03-07T21:27:01.235Z,3.10
2023-03-07T21:29:30.992Z,2.92
2023-03-07T21:32:00.786Z,3.20
2023-03-07T21:34:30.582Z,3.50
2023-03-07T21:37:00.389Z,3.58
2023-03-07T21:39:30.221Z,3.22
2023-03-07T21:42:02.547Z,3.90
2023-03-07T21:44:33.066Z,4.03
2023-03-07T21:47:02.998Z,3.42
2023-03-07T21:49:33.993Z,3.30
2023-03-07T21:52:04.474Z,3.33
2023-03-07T21:54:34.484Z,3.88
2023-03-07T21:57:06.863Z,3.45
2023-03-07T21:59:36.708Z,3.60
2023-03-07T22:02:06.591Z,3.80
2023-03-07T22:04:36.485Z,3.70
2023-03-07T22:07:06.396Z,3.20
2023-03-07T22:09:36.436Z,3.42
2023-03-07T22:12:09.603Z,3.42
2023-03-07T22:14:39.340Z,3.58
2023-03-07T22:17:09.099Z,4.22
2023-03-07T22:19:38.819Z,3.58
2023-03-07T22:22:08.757Z,3.78
2023-03-07T22:24:38.535Z,4.07
2023-03-07T22:27:10.882Z,4.47
2023-03-07T22:29:40.644Z,4.25
2023-03-07T22:32:10.564Z,3.90
2023-03-07T22:34:40.776Z,3.70
2023-03-07T22:37:10.569Z,4.25
2023-03-07T22:39:40.569Z,4.25
2023-03-07T22:42:13.150Z,4.45
2023-03-07T22:44:42.975Z,4.38
2023-03-07T22:47:12.734Z,3.83
2023-03-07T22:49:42.536Z,4.10
2023-03-07T22:52:12.391Z,4.10
2023-03-07T22:54:43.617Z,3.92
2023-03-07T22:57:16.075Z,4.18
2023-03-07T22:59:45.811Z,3.80
2023-03-07T23:02:15.560Z,3.70
2023-03-07T23:04:45.487Z,4.13
2023-03-07T23:07:16.294Z,4.00
2023-03-07T23:09:46.195Z,3.80
2023-03-07T23:12:18.565Z,3.83
2023-03-07T23:14:48.530Z,4.32
2023-03-07T23:17:18.261Z,3.50
2023-03-07T23:19:48.040Z,3.58
2023-03-07T23:22:17.774Z,4.93
2023-03-07T23:24:47.714Z,3.85
2023-03-07T23:27:20.081Z,3.85
2023-03-07T23:29:49.877Z,4.45
2023-03-07T23:32:19.606Z,3.88
2023-03-07T23:34:49.516Z,3.88
2023-03-07T23:37:19.378Z,4.10
2023-03-07T23:39:49.099Z,4.20
2023-03-07T23:42:21.896Z,4.60
2023-03-07T23:44:52.105Z,4.65
2023-03-07T23:47:21.839Z,4.75
2023-03-07T23:49:51.582Z,4.47
2023-03-07T23:52:21.328Z,4.13
2023-03-07T23:54:51.153Z,4.85
2023-03-07T23:57:23.516Z,4.47
2023-03-07T23:59:53.311Z,5.15
